createdAt,value
2022-08-28T00:02:26.544Z,12.67
2022-08-28T00:04:53.541Z,10.23
2022-08-28T00:07:20.147Z,12.63
2022-08-28T00:09:46.880Z,8.88
2022-08-28T00:12:13.516Z,13.73
2022-08-28T00:14:40.642Z,10.63
2022-08-28T00:17:07.268Z,10.68
2022-08-28T00:19:38.480Z,11.30
2022-08-28T00:22:06.310Z,10.52
2022-08-28T00:24:35.113Z,10.80
2022-08-28T00:27:21.263Z,11.53
2022-08-28T00:29:49.172Z,9.45
2022-08-28T00:32:17.187Z,10.05
2022-08-28T00:34:45.068Z,12.45
2022-08-28T00:37:12.137Z,12.52
2022-08-28T00:39:42.027Z,16.10
2022-08-28T00:42:18.179Z,8.85
2022-08-28T00:44:52.558Z,10.20
2022-08-28T00:47:19.851Z,10.77
2022-08-28T00:49:51.968Z,11.13
2022-08-28T00:52:20.926Z,10.77
2022-08-28T00:55:03.643Z,13.90
2022-08-28T00:57:43.083Z,11.65
2022-08-28T01:00:13.806Z,12.07
2022-08-28T01:02:40.846Z,8.68
2022-08-28T01:05:10.110Z,16.50
2022-08-28T01:07:37.801Z,8.10
2022-08-28T01:10:08.471Z,15.60
2022-08-28T01:12:35.670Z,10.85
2022-08-28T01:15:13.970Z,11.82
2022-08-28T01:17:50.210Z,10.10
2022-08-28T01:20:22.174Z,11.88
2022-08-28T01:23:11.686Z,11.68
2022-08-28T01:25:39.151Z,9.88
2022-08-28T01:28:15.699Z,14.80
2022-08-28T01:30:46.646Z,14.27
2022-08-28T01:33:16.043Z,11.10
2022-08-28T01:35:47.598Z,10.48
2022-08-28T01:38:17.638Z,8.63
2022-08-28T01:40:53.941Z,8.25
2022-08-28T01:43:23.670Z,10.07
2022-08-28T01:45:57.792Z,11.43
2022-08-28T01:48:27.463Z,9.10
2022-08-28T01:50:56.072Z,10.13
2022-08-28T01:53:25.140Z,12.75
2022-08-28T01:56:00.748Z,9.20
2022-08-28T01:58:28.991Z,12.55
2022-08-28T02:01:06.472Z,15.27
2022-08-28T02:03:33.587Z,12.48
2022-08-28T02:06:00.320Z,9.48
2022-08-28T02:08:28.025Z,10.17
2022-08-28T02:10:55.064Z,9.05
2022-08-28T02:13:22.273Z,11.38
2022-08-28T02:15:52.598Z,7.65
2022-08-28T02:18:26.092Z,11.02
2022-08-28T02:20:53.203Z,9.57
2022-08-28T02:23:20.836Z,9.43
2022-08-28T02:25:50.927Z,8.98
2022-08-28T02:28:18.071Z,10.13
2022-08-28T02:30:45.102Z,10.27
2022-08-28T02:33:12.305Z,8.73
2022-08-28T02:35:40.398Z,9.60
2022-08-28T02:38:07.502Z,12.68
2022-08-28T02:40:34.418Z,9.55
2022-08-28T02:43:02.717Z,12.73
2022-08-28T02:45:32.256Z,8.87
2022-08-28T02:48:05.715Z,13.38
2022-08-28T02:50:45.227Z,13.75
2022-08-28T02:53:15.091Z,11.43
2022-08-28T02:55:44.753Z,6.80
2022-08-28T02:58:12.646Z,10.17
2022-08-28T03:00:40.226Z,12.60
2022-08-28T03:03:21.640Z,10.20
2022-08-28T03:05:54.456Z,10.70
2022-08-28T03:08:21.977Z,7.93
2022-08-28T03:10:54.588Z,10.83
2022-08-28T03:13:28.056Z,7.78
2022-08-28T03:15:56.231Z,13.77
2022-08-28T03:18:25.336Z,8.23
2022-08-28T03:20:53.172Z,11.65
2022-08-28T03:23:27.318Z,10.40
2022-08-28T03:26:12.904Z,12.85
2022-08-28T03:28:59.709Z,10.52
2022-08-28T03:31:29.914Z,11.85
2022-08-28T03:33:57.606Z,14.73
2022-08-28T03:36:33.641Z,11.70
2022-08-28T03:39:06.447Z,12.68
2022-08-28T03:41:35.194Z,9.07
2022-08-28T03:44:07.874Z,9.48
2022-08-28T03:46:38.666Z,10.13
2022-08-28T03:49:06.458Z,11.40
2022-08-28T03:51:37.328Z,11.57
2022-08-28T03:54:06.665Z,10.65
2022-08-28T03:56:38.030Z,9.57
2022-08-28T04:01:46.959Z,11.83
2022-08-28T04:04:14.210Z,10.18
2022-08-28T04:06:42.005Z,11.50
2022-08-28T04:09:09.970Z,11.30
2022-08-28T04:11:44.095Z,7.30
2022-08-28T04:14:13.017Z,14.13
2022-08-28T04:16:39.911Z,10.85
2022-08-28T04:19:17.957Z,9.60
2022-08-28T04:21:48.059Z,10.55
2022-08-28T04:24:16.291Z,8.20
2022-08-28T04:26:43.910Z,11.73
2022-08-28T04:29:12.224Z,11.32
2022-08-28T04:31:43.372Z,12.30
2022-08-28T04:34:16.870Z,12.65
2022-08-28T04:36:46.352Z,11.68
2022-08-28T04:39:18.779Z,9.67
2022-08-28T04:42:01.433Z,8.85
2022-08-28T04:44:29.375Z,11.80
2022-08-28T04:47:03.167Z,8.02
2022-08-28T04:49:37.704Z,14.85
2022-08-28T04:52:06.881Z,9.20
2022-08-28T04:54:34.642Z,13.35
2022-08-28T04:57:02.893Z,9.85
2022-08-28T04:59:35.809Z,11.00
2022-08-28T05:02:03.892Z,9.48
2022-08-28T05:04:30.956Z,14.43
2022-08-28T05:07:01.863Z,8.20
2022-08-28T05:09:32.739Z,9.50
2022-08-28T05:12:16.630Z,10.57
2022-08-28T05:14:49.633Z,10.63
2022-08-28T05:17:16.396Z,12.13
2022-08-28T05:19:43.820Z,11.00
2022-08-28T05:22:12.547Z,12.07
2022-08-28T05:24:50.636Z,10.63
2022-08-28T05:27:36.195Z,13.52
2022-08-28T05:32:51.719Z,8.18
2022-08-28T05:35:21.229Z,9.65
2022-08-28T05:37:52.219Z,12.60
2022-08-28T05:40:24.962Z,18.88
2022-08-28T05:45:40.528Z,11.82
2022-08-28T05:48:09.087Z,10.00
2022-08-28T05:53:27.958Z,8.85
2022-08-28T05:55:55.623Z,12.27
2022-08-28T05:58:33.638Z,9.20
2022-08-28T06:01:20.524Z,12.10
2022-08-28T06:03:55.033Z,12.40
2022-08-28T06:06:27.462Z,11.65
2022-08-28T06:09:29.648Z,11.80
2022-08-28T06:12:03.731Z,14.82
2022-08-28T06:14:54.422Z,10.43
2022-08-28T06:17:29.595Z,10.07
2022-08-28T06:20:03.049Z,10.85
2022-08-28T06:22:54.156Z,10.80
2022-08-28T06:25:32.578Z,8.00
2022-08-28T06:28:36.253Z,8.98
2022-08-28T06:31:24.646Z,11.88
2022-08-28T06:33:54.975Z,6.80
2022-08-28T06:36:30.629Z,9.27
2022-08-28T06:39:00.332Z,13.07
2022-08-28T06:41:28.666Z,10.00
2022-08-28T06:43:55.983Z,12.35
2022-08-28T06:46:23.174Z,9.55
2022-08-28T06:48:50.103Z,16.33
2022-08-28T06:51:18.464Z,12.45
2022-08-28T06:53:46.757Z,8.02
2022-08-28T06:56:31.764Z,8.25
2022-08-28T07:05:18.467Z,12.57
2022-08-28T07:07:50.811Z,11.07
2022-08-28T07:16:18.806Z,7.53
2022-08-28T07:24:48.396Z,6.90
2022-08-28T07:28:22.264Z,8.57
2022-08-28T07:33:56.660Z,12.18
2022-08-28T07:36:30.034Z,7.07
2022-08-28T07:39:10.122Z,9.98
2022-08-28T07:41:41.333Z,9.88
2022-08-28T07:47:35.837Z,10.32
2022-08-28T07:52:50.189Z,8.82
2022-08-28T07:55:25.332Z,7.55
2022-08-28T07:57:53.585Z,11.37
2022-08-28T08:03:23.622Z,14.48
2022-08-28T08:06:33.124Z,5.72
2022-08-28T08:11:47.781Z,7.70
2022-08-28T08:17:04.712Z,7.35
2022-08-28T08:22:49.325Z,9.20
2022-08-28T08:25:16.068Z,5.70
2022-08-28T08:27:43.231Z,8.57
2022-08-28T08:30:11.422Z,13.35
2022-08-28T08:32:39.993Z,5.57
2022-08-28T08:35:07.432Z,9.55
2022-08-28T08:37:35.667Z,7.50
2022-08-28T08:40:21.679Z,8.45
2022-08-28T08:52:54.817Z,9.23
2022-08-28T09:12:26.735Z,9.20
2022-08-28T09:15:46.315Z,4.25
2022-08-28T09:22:12.041Z,7.20
2022-08-28T09:24:44.859Z,5.97
2022-08-28T09:28:05.089Z,6.53
2022-08-28T09:35:05.939Z,9.65
2022-08-28T12:17:05.150Z,4.53
2022-08-28T12:19:55.456Z,5.43
2022-08-28T12:22:39.863Z,4.68
2022-08-28T12:25:14.185Z,6.45
2022-08-28T12:27:41.503Z,6.83
2022-08-28T12:30:08.416Z,4.00
2022-08-28T12:32:47.604Z,5.57
2022-08-28T12:35:28.723Z,4.88
2022-08-28T12:37:57.229Z,3.78
2022-08-28T12:40:27.444Z,3.80
2022-08-28T12:43:01.604Z,5.07
2022-08-28T12:45:36.456Z,3.83
2022-08-28T12:48:12.842Z,6.00
2022-08-28T12:50:39.939Z,3.40
2022-08-28T12:53:13.264Z,2.87
2022-08-28T12:55:40.715Z,3.78
2022-08-28T12:58:29.225Z,5.68
2022-08-28T13:01:00.499Z,3.22
2022-08-28T13:03:27.472Z,4.18
2022-08-28T13:06:02.012Z,3.57
2022-08-28T13:08:29.203Z,3.17
2022-08-28T13:10:56.190Z,4.13
2022-08-28T13:13:45.077Z,5.03
2022-08-28T13:16:13.378Z,4.90
2022-08-28T13:19:10.517Z,4.10
2022-08-28T13:21:52.324Z,3.50
2022-08-28T13:24:26.035Z,4.10
2022-08-28T13:27:15.818Z,4.10
2022-08-28T13:29:59.746Z,5.20
2022-08-28T13:32:28.070Z,9.07
2022-08-28T13:35:27.928Z,5.28
2022-08-28T13:38:00.096Z,10.68
2022-08-28T13:41:06.002Z,4.80
2022-08-28T13:43:19.407Z,6.57
2022-08-28T13:45:48.618Z,5.80
2022-08-28T13:48:21.978Z,7.00
2022-08-28T13:50:53.776Z,3.97
2022-08-28T13:53:21.179Z,9.73
2022-08-28T13:55:50.481Z,6.30
2022-08-28T13:58:17.616Z,5.43
2022-08-28T14:00:48.563Z,7.20
2022-08-28T14:03:34.831Z,5.45
2022-08-28T14:06:02.962Z,5.57
2022-08-28T14:08:30.235Z,8.63
2022-08-28T14:11:12.919Z,4.90
2022-08-28T14:13:46.687Z,4.68
2022-08-28T14:16:31.401Z,6.32
2022-08-28T14:19:00.126Z,9.00
2022-08-28T14:21:26.854Z,6.93
2022-08-28T14:51:32.663Z,5.20
2022-08-28T14:54:00.948Z,7.72
2022-08-28T14:56:29.085Z,6.45
2022-08-28T14:58:59.769Z,4.73
2022-08-28T15:01:39.788Z,7.90
2022-08-28T15:04:10.365Z,9.05
2022-08-28T15:06:37.877Z,6.55
2022-08-28T15:09:05.019Z,6.75
2022-08-28T15:11:31.635Z,6.03
2022-08-28T15:13:58.417Z,5.93
2022-08-28T15:16:31.535Z,3.65
2022-08-28T15:18:59.968Z,4.35
2022-08-28T15:21:32.636Z,7.13
2022-08-28T15:24:01.181Z,5.00
2022-08-28T15:26:29.106Z,3.97
2022-08-28T15:29:02.103Z,4.97
2022-08-28T15:31:34.480Z,3.88
2022-08-28T15:34:06.389Z,8.20
2022-08-28T15:36:42.266Z,6.27
2022-08-28T15:39:27.872Z,4.32
2022-08-28T15:41:54.926Z,5.78
2022-08-28T15:44:21.636Z,3.72
2022-08-28T15:46:56.487Z,6.10
2022-08-28T15:49:25.579Z,4.87
2022-08-28T15:51:52.548Z,5.22
2022-08-28T15:54:20.754Z,7.32
2022-08-28T15:56:48.024Z,4.53
2022-08-28T15:59:17.673Z,6.10
2022-08-28T16:01:44.811Z,4.67
2022-08-28T16:04:11.816Z,5.72
2022-08-28T16:06:38.422Z,6.75
2022-08-28T16:09:06.503Z,7.53
2022-08-28T16:11:34.047Z,4.95
2022-08-28T16:14:05.255Z,4.53
2022-08-28T16:16:32.751Z,7.05
2022-08-28T16:19:00.386Z,4.65
2022-08-28T16:21:28.230Z,5.35
2022-08-28T16:23:55.267Z,4.47
2022-08-28T16:26:22.015Z,5.33
2022-08-28T16:28:49.273Z,4.72
2022-08-28T16:31:20.376Z,5.13
2022-08-28T16:33:48.599Z,3.53
2022-08-28T16:36:16.973Z,4.93
2022-08-28T16:38:46.019Z,5.97
2022-08-28T16:41:19.111Z,6.38
2022-08-28T16:43:46.249Z,8.45
2022-08-28T16:46:16.873Z,5.85
2022-08-28T16:48:44.742Z,5.65
2022-08-28T16:51:13.905Z,7.17
2022-08-28T16:53:42.502Z,5.25
2022-08-28T16:56:10.818Z,4.97
2022-08-28T16:58:39.414Z,3.75
2022-08-28T17:01:08.056Z,4.35
2022-08-28T17:03:37.960Z,6.80
2022-08-28T17:06:16.428Z,4.78
2022-08-28T17:08:43.830Z,5.25
2022-08-28T17:11:11.287Z,5.32
2022-08-28T17:13:38.191Z,4.43
2022-08-28T17:16:04.974Z,4.47
2022-08-28T17:18:31.907Z,4.63
2022-08-28T17:21:17.099Z,3.75
2022-08-28T17:23:43.994Z,4.45
2022-08-28T17:26:10.598Z,5.03
2022-08-28T17:28:37.215Z,5.87
2022-08-28T17:31:03.884Z,4.63
2022-08-28T17:33:30.705Z,5.03
2022-08-28T17:35:59.693Z,5.60
2022-08-28T17:38:26.567Z,3.38
2022-08-28T17:40:53.272Z,4.77
2022-08-28T17:43:20.828Z,5.00
2022-08-28T17:45:47.722Z,6.47
2022-08-28T17:48:16.881Z,5.68
2022-08-28T17:50:46.091Z,9.27
2022-08-28T17:53:12.995Z,4.07
2022-08-28T17:55:39.635Z,6.85
2022-08-28T17:58:06.243Z,3.83
2022-08-28T18:00:33.360Z,5.25
2022-08-28T18:03:00.270Z,5.45
2022-08-28T18:05:26.997Z,4.97
2022-08-28T18:07:53.842Z,5.50
2022-08-28T18:10:21.601Z,8.40
2022-08-28T18:12:48.473Z,8.05
2022-08-28T18:15:15.132Z,6.45
2022-08-28T18:17:43.014Z,3.17
2022-08-28T18:20:11.344Z,4.30
2022-08-28T18:22:38.407Z,5.32
2022-08-28T18:25:06.222Z,5.57
2022-08-28T18:27:34.900Z,6.07
2022-08-28T18:30:01.713Z,5.83
2022-08-28T18:32:28.395Z,6.82
2022-08-28T18:34:55.248Z,4.45
2022-08-28T18:37:21.867Z,3.45
2022-08-28T18:39:48.551Z,4.60
2022-08-28T18:42:18.268Z,7.90
2022-08-28T18:44:44.871Z,5.63
2022-08-28T18:47:11.483Z,5.15
2022-08-28T18:49:38.470Z,6.75
2022-08-28T18:52:05.326Z,5.35
2022-08-28T18:54:31.963Z,3.00
2022-08-28T18:57:04.360Z,6.78
2022-08-28T18:59:33.160Z,4.43
2022-08-28T19:02:00.617Z,3.40
2022-08-28T19:04:27.483Z,5.75
2022-08-28T19:06:54.102Z,4.87
2022-08-28T19:09:20.870Z,4.93
2022-08-28T19:11:47.977Z,4.70
2022-08-28T19:14:14.548Z,5.80
2022-08-28T19:16:41.151Z,6.53
2022-08-28T19:19:08.131Z,4.53
2022-08-28T19:21:35.710Z,3.35
2022-08-28T19:24:02.730Z,6.68
2022-08-28T19:26:29.343Z,5.07
2022-08-28T19:28:57.087Z,6.50
2022-08-28T19:31:25.592Z,3.50
2022-08-28T19:33:52.273Z,4.95
2022-08-28T19:36:19.083Z,5.35
2022-08-28T19:38:45.775Z,8.07
2022-08-28T19:41:12.957Z,5.10
2022-08-28T19:43:43.377Z,4.03
2022-08-28T19:46:18.516Z,4.90
2022-08-28T19:48:46.743Z,4.05
2022-08-28T19:51:18.290Z,5.97
2022-08-28T19:53:56.863Z,4.05
2022-08-28T19:56:27.080Z,5.03
2022-08-28T19:58:54.782Z,5.47
2022-08-28T20:01:21.483Z,4.78
2022-08-28T20:03:48.104Z,7.70
2022-08-28T20:06:14.948Z,4.25
2022-08-28T20:08:41.741Z,4.17
2022-08-28T20:11:09.630Z,4.95
2022-08-28T20:13:36.316Z,4.28
2022-08-28T20:16:04.834Z,4.63
2022-08-28T20:18:31.473Z,6.80
2022-08-28T20:20:58.063Z,4.77
2022-08-28T20:23:24.990Z,5.95
2022-08-28T20:25:51.962Z,8.18
2022-08-28T20:28:19.223Z,6.88
2022-08-28T20:30:46.802Z,7.25
2022-08-28T20:33:13.968Z,5.37
2022-08-28T20:35:40.645Z,5.40
2022-08-28T20:38:07.361Z,7.07
2022-08-28T20:40:34.198Z,6.45
2022-08-28T20:43:00.906Z,8.82
2022-08-28T20:45:28.079Z,8.60
2022-08-28T20:47:54.885Z,4.88
2022-08-28T20:50:21.496Z,9.00
2022-08-28T20:52:48.249Z,8.15
2022-08-28T20:55:14.850Z,6.30
2022-08-28T20:57:41.663Z,7.73
2022-08-28T21:00:10.387Z,6.18
2022-08-28T21:02:37.603Z,7.65
2022-08-28T21:05:05.352Z,7.97
2022-08-28T21:07:33.978Z,7.88
2022-08-28T21:10:06.137Z,6.93
2022-08-28T21:12:35.630Z,7.20
2022-08-28T21:15:02.556Z,6.95
2022-08-28T21:17:30.759Z,7.60
2022-08-28T21:20:00.101Z,7.95
2022-08-28T21:22:27.018Z,3.47
2022-08-28T21:24:54.098Z,6.47
2022-08-28T21:27:20.693Z,6.43
2022-08-28T21:29:47.866Z,8.88
2022-08-28T21:32:14.951Z,8.95
2022-08-28T21:34:41.535Z,6.33
2022-08-28T21:37:08.234Z,7.55
2022-08-28T21:39:35.249Z,6.20
2022-08-28T21:42:01.878Z,7.00
2022-08-28T21:44:28.940Z,3.35
2022-08-28T21:46:55.604Z,8.50
2022-08-28T21:49:22.967Z,7.20
2022-08-28T21:51:50.526Z,5.53
2022-08-28T21:54:18.143Z,6.65
2022-08-28T21:56:45.469Z,6.47
2022-08-28T21:59:12.116Z,8.57
2022-08-28T22:01:38.777Z,6.57
2022-08-28T22:04:05.453Z,7.75
2022-08-28T22:06:32.469Z,4.82
2022-08-28T22:08:59.828Z,7.10
2022-08-28T22:11:26.838Z,7.30
2022-08-28T22:13:57.385Z,7.15
2022-08-28T22:16:25.053Z,6.55
2022-08-28T22:18:52.088Z,7.82
2022-08-28T22:21:41.856Z,4.72
2022-08-28T22:24:10.184Z,7.40
2022-08-28T22:26:37.261Z,5.85
2022-08-28T22:29:03.937Z,5.95
2022-08-28T22:31:30.585Z,5.10
2022-08-28T22:33:57.296Z,3.92
2022-08-28T22:36:24.035Z,4.67
2022-08-28T22:38:56.179Z,6.60
2022-08-28T22:41:23.346Z,8.18
2022-08-28T22:43:51.559Z,3.35
2022-08-28T22:46:20.588Z,5.78
2022-08-28T22:48:47.609Z,9.40
2022-08-28T22:51:18.271Z,9.82
2022-08-28T22:53:45.592Z,6.57
2022-08-28T22:56:13.140Z,5.63
2022-08-28T22:58:40.333Z,5.00
2022-08-28T23:01:11.864Z,6.13
2022-08-28T23:03:39.490Z,8.20
2022-08-28T23:06:06.523Z,7.90
2022-08-28T23:08:34.134Z,6.22
2022-08-28T23:11:01.616Z,6.90
2022-08-28T23:13:29.766Z,6.77
2022-08-28T23:15:56.509Z,6.93
2022-08-28T23:18:23.239Z,10.20
2022-08-28T23:20:50.532Z,9.30
2022-08-28T23:23:17.918Z,7.88
2022-08-28T23:25:44.591Z,6.63
2022-08-28T23:28:11.279Z,6.15
2022-08-28T23:30:38.941Z,9.15
2022-08-28T23:33:08.354Z,6.63
2022-08-28T23:35:35.911Z,6.78
2022-08-28T23:38:04.140Z,5.73
2022-08-28T23:40:33.052Z,4.85
2022-08-28T23:43:02.723Z,9.30
2022-08-28T23:45:29.901Z,6.75
2022-08-28T23:47:56.523Z,9.93
2022-08-28T23:50:23.216Z,7.17
2022-08-28T23:52:50.275Z,7.25
2022-08-28T23:55:18.603Z,6.45
2022-08-28T23:57:45.776Z,5.63
